Crauthem, Luxembourg
Current Conditions -  °F | °C
As of 12:20 AM on Sunday 26 Oct 2014 (Local Time) from ELLX Reporting Station
Broken Clouds Broken Clouds  
Wind Chill: 52°   Ceiling: 4900
Heat Index: 52°   Visibility: 6mi
Dew Point: 50°   Wind: 1mph
Humidity: 94%   Direction: NA
Pressure: 30.24"   Gusts: NA
Location:  49.54°N, 6.15°E
Report Text: ELLX 252220Z VRB01KT 9999 SCT040 BKN049 11/10 Q1024 NOSIG
Loading
Personal Weather Stations






























Interactive Weather Map
Tropical Storm Tracking
New forecast layout! Learn more

10-Day Weather Forecast

Advertisements
Track Severe Weather on mobile